createdAt,value
2022-10-05T00:03:31.345Z,1.80
2022-10-05T00:07:31.169Z,1.83
2022-10-05T00:11:25.153Z,1.60
2022-10-05T00:15:26.598Z,1.80
2022-10-05T00:19:37.195Z,1.67
2022-10-05T00:23:43.579Z,1.58
2022-10-05T00:27:49.338Z,1.55
2022-10-05T00:31:43.282Z,1.63
2022-10-05T00:35:49.192Z,1.83
2022-10-05T00:39:49.233Z,1.20
2022-10-05T00:44:13.416Z,1.58
2022-10-05T00:48:11.398Z,1.73
2022-10-05T00:51:55.146Z,1.38
2022-10-05T00:55:55.178Z,1.63
2022-10-05T01:00:01.140Z,1.80
2022-10-05T01:04:01.174Z,1.92
2022-10-05T01:08:12.261Z,1.73
2022-10-05T01:12:07.372Z,1.42
2022-10-05T01:15:55.219Z,1.33
2022-10-05T01:20:01.389Z,1.40
2022-10-05T01:24:13.194Z,1.50
2022-10-05T01:28:15.106Z,1.73
2022-10-05T01:32:13.356Z,1.52
2022-10-05T01:36:07.248Z,1.80
2022-10-05T01:40:01.229Z,1.88
2022-10-05T01:43:47.131Z,1.50
2022-10-05T01:47:49.203Z,1.80
2022-10-05T01:51:43.192Z,1.90
2022-10-05T01:55:45.478Z,1.65
2022-10-05T02:09:00.559Z,2.35
2022-10-05T02:12:33.964Z,2.70
2022-10-05T02:16:00.418Z,2.53
2022-10-05T02:19:25.433Z,2.60
2022-10-05T02:22:50.143Z,4.00
2022-10-05T02:26:14.912Z,3.65
2022-10-05T02:29:50.285Z,3.80
2022-10-05T02:33:19.094Z,4.32
2022-10-05T02:36:41.875Z,3.63
2022-10-05T02:40:26.144Z,3.35
2022-10-05T02:44:01.440Z,3.28
2022-10-05T02:47:33.635Z,3.83
2022-10-05T02:51:05.125Z,3.72
2022-10-05T02:54:39.565Z,5.63
2022-10-05T02:58:09.074Z,4.38
2022-10-05T03:01:39.926Z,4.63
2022-10-05T03:05:20.238Z,5.07
2022-10-05T03:08:51.542Z,5.25
2022-10-05T03:12:26.233Z,5.70
2022-10-05T03:16:28.169Z,5.53
2022-10-05T03:20:24.734Z,5.93
2022-10-05T03:24:00.879Z,5.88
2022-10-05T03:27:33.543Z,6.13
2022-10-05T03:35:26.298Z,6.40
2022-10-05T03:39:53.359Z,5.13
2022-10-05T03:44:04.137Z,5.43
2022-10-05T03:48:22.078Z,5.28
2022-10-05T03:52:26.607Z,5.00
2022-10-05T03:56:37.309Z,5.68
2022-10-05T04:00:29.908Z,4.85
2022-10-05T04:04:09.274Z,4.65
2022-10-05T04:08:17.535Z,4.97
2022-10-05T04:12:47.380Z,5.70
2022-10-05T04:16:37.572Z,6.20
2022-10-05T04:20:44.780Z,5.93
2022-10-05T04:24:40.005Z,5.38
2022-10-05T04:29:07.790Z,5.95
2022-10-05T04:37:06.677Z,5.68
2022-10-05T04:41:32.022Z,6.18
2022-10-05T04:45:57.218Z,7.78
2022-10-05T04:50:02.129Z,19.58
2022-10-05T04:54:04.053Z,12.40
2022-10-05T04:58:06.484Z,14.18
2022-10-05T05:13:25.740Z,18.98
2022-10-05T05:17:24.328Z,20.90
2022-10-05T05:21:23.175Z,17.70
2022-10-05T05:29:29.056Z,16.30
2022-10-05T05:33:46.687Z,19.25
2022-10-05T05:42:00.449Z,20.73
2022-10-05T05:50:46.203Z,22.92
2022-10-05T05:54:54.586Z,20.10
2022-10-05T05:58:54.031Z,30.50
2022-10-05T06:02:47.976Z,23.98
2022-10-05T06:06:58.907Z,21.48
2022-10-05T06:10:52.308Z,26.92
2022-10-05T06:15:04.047Z,18.85
2022-10-05T06:23:31.165Z,13.65
2022-10-05T06:32:05.023Z,12.20
2022-10-05T06:40:37.472Z,11.57
2022-10-05T06:44:28.567Z,15.07
2022-10-05T06:48:22.500Z,26.35
2022-10-05T06:52:22.970Z,28.48
2022-10-05T06:56:06.307Z,24.20
2022-10-05T07:00:02.638Z,12.63
2022-10-05T07:04:11.423Z,14.05
2022-10-05T07:08:16.389Z,16.87
2022-10-05T07:16:10.758Z,16.55
2022-10-05T07:20:18.820Z,19.05
2022-10-05T07:24:17.061Z,11.60
2022-10-05T07:28:24.515Z,18.63
2022-10-05T07:32:18.264Z,11.25
2022-10-05T07:36:44.215Z,10.18
2022-10-05T07:40:39.624Z,10.85
2022-10-05T07:44:43.528Z,10.73
2022-10-05T07:49:00.503Z,12.50
2022-10-05T07:52:46.564Z,12.38
2022-10-05T07:56:23.688Z,9.85
2022-10-05T08:00:15.236Z,16.38
2022-10-05T08:08:16.682Z,14.52
2022-10-05T08:12:26.708Z,8.27
2022-10-05T08:16:52.462Z,8.98
2022-10-05T08:25:05.647Z,12.30
2022-10-05T08:28:57.924Z,9.35
2022-10-05T08:32:43.408Z,11.15
2022-10-05T08:36:44.903Z,12.30
2022-10-05T08:41:07.722Z,12.35
2022-10-05T08:45:50.529Z,8.82
2022-10-05T08:50:05.975Z,11.00
2022-10-05T08:54:10.242Z,10.88
2022-10-05T08:58:34.789Z,11.18
2022-10-05T09:02:21.960Z,8.32
2022-10-05T09:06:43.550Z,9.88
2022-10-05T09:12:06.862Z,9.52
2022-10-05T09:15:25.882Z,8.32
2022-10-05T09:19:27.820Z,8.98
2022-10-05T09:23:21.341Z,8.75
2022-10-05T09:27:10.829Z,5.82
2022-10-05T09:31:18.073Z,7.50
2022-10-05T09:35:32.846Z,9.25
2022-10-05T09:39:22.300Z,19.38
2022-10-05T09:43:35.742Z,18.17
2022-10-05T09:47:24.429Z,10.82
2022-10-05T09:51:21.771Z,10.13
2022-10-05T09:55:16.820Z,10.00
2022-10-05T09:59:06.620Z,18.15
2022-10-05T10:02:58.176Z,14.07
2022-10-05T10:06:54.201Z,19.63
2022-10-05T10:10:54.919Z,14.82
2022-10-05T10:14:53.997Z,16.88
2022-10-05T10:18:47.347Z,19.20
2022-10-05T10:22:29.519Z,23.60
2022-10-05T10:26:47.808Z,36.63
2022-10-05T10:30:40.156Z,37.30
2022-10-05T10:34:40.204Z,35.83
2022-10-05T10:38:31.091Z,26.63
2022-10-05T10:42:22.552Z,34.40
2022-10-05T10:45:56.382Z,55.33
2022-10-05T10:49:36.883Z,36.03
2022-10-05T10:53:19.926Z,35.17
2022-10-05T10:56:57.513Z,33.25
2022-10-05T11:00:42.219Z,44.97
2022-10-05T11:04:24.705Z,63.80
2022-10-05T11:08:03.940Z,68.25
2022-10-05T11:11:40.117Z,40.05
2022-10-05T11:15:24.459Z,28.75
2022-10-05T11:19:24.884Z,23.42
2022-10-05T11:23:00.093Z,20.80
2022-10-05T11:27:03.751Z,26.90
2022-10-05T11:30:50.503Z,28.00
2022-10-05T11:34:55.176Z,30.35
2022-10-05T11:39:04.993Z,43.83
2022-10-05T11:43:13.516Z,34.15
2022-10-05T11:46:46.406Z,30.43
2022-10-05T11:50:20.556Z,23.23
2022-10-05T11:53:50.535Z,26.35
2022-10-05T11:57:19.382Z,32.38
2022-10-05T12:00:48.770Z,33.65
2022-10-05T12:04:20.773Z,30.60
2022-10-05T12:07:53.412Z,17.88
2022-10-05T12:11:30.069Z,39.35
2022-10-05T12:14:57.559Z,27.83
2022-10-05T12:18:42.804Z,19.70
2022-10-05T12:22:15.567Z,18.52
2022-10-05T12:25:43.768Z,16.23
2022-10-05T12:29:13.700Z,13.75
2022-10-05T12:32:42.644Z,14.07
2022-10-05T12:39:40.988Z,25.98
2022-10-05T12:43:07.664Z,62.60
2022-10-05T12:46:38.166Z,38.30
2022-10-05T12:50:13.261Z,32.83
2022-10-05T12:53:48.587Z,20.98
2022-10-05T12:57:21.137Z,35.75
2022-10-05T13:00:50.086Z,35.75
2022-10-05T13:08:00.099Z,26.85
2022-10-05T13:11:28.890Z,21.55
2022-10-05T13:18:30.328Z,14.27
2022-10-05T13:22:08.734Z,13.73
2022-10-05T13:25:34.158Z,17.02
2022-10-05T13:29:03.920Z,19.52
2022-10-05T13:32:32.384Z,23.60
2022-10-05T13:36:01.977Z,38.10
2022-10-05T13:39:37.840Z,27.60
2022-10-05T13:43:05.074Z,25.55
2022-10-05T13:46:35.694Z,22.70
2022-10-05T13:50:05.388Z,19.10
2022-10-05T13:53:32.904Z,13.65
2022-10-05T13:57:06.708Z,12.05
2022-10-05T14:00:28.917Z,13.13
2022-10-05T14:04:16.135Z,14.93
2022-10-05T14:07:49.772Z,16.85
2022-10-05T14:11:33.832Z,19.58
2022-10-05T14:14:57.226Z,20.40
2022-10-05T14:18:24.997Z,19.95
2022-10-05T14:21:53.599Z,15.13
2022-10-05T14:25:19.949Z,21.00
2022-10-05T14:28:43.738Z,21.55
2022-10-05T14:32:15.014Z,24.60
2022-10-05T14:35:49.096Z,20.45
2022-10-05T14:39:14.226Z,25.00
2022-10-05T14:42:47.288Z,18.83
2022-10-05T14:46:27.945Z,17.98
2022-10-05T14:50:10.856Z,20.85
2022-10-05T14:53:40.492Z,17.83
2022-10-05T14:57:10.120Z,20.15
2022-10-05T15:00:38.845Z,27.08
2022-10-05T15:04:21.783Z,21.23
2022-10-05T15:07:47.995Z,19.95
2022-10-05T15:11:14.860Z,21.85
2022-10-05T15:14:40.597Z,18.50
2022-10-05T15:18:15.171Z,27.95
2022-10-05T15:21:55.395Z,22.50
2022-10-05T15:25:23.173Z,34.65
2022-10-05T15:28:54.522Z,24.00
2022-10-05T15:32:26.054Z,29.17
2022-10-05T15:36:08.367Z,47.60
2022-10-05T15:39:37.958Z,30.75
2022-10-05T15:43:04.304Z,27.05
2022-10-05T15:46:35.193Z,28.35
2022-10-05T15:50:06.803Z,35.33
2022-10-05T15:53:39.387Z,26.90
2022-10-05T15:57:12.382Z,26.38
2022-10-05T16:00:38.015Z,25.40
2022-10-05T16:04:06.375Z,27.73
2022-10-05T16:07:53.937Z,23.95
2022-10-05T16:11:26.888Z,21.42
2022-10-05T16:15:05.317Z,21.15
2022-10-05T16:18:48.491Z,25.60
2022-10-05T16:22:22.363Z,24.58
2022-10-05T16:25:53.939Z,22.40
2022-10-05T16:29:28.623Z,23.27
2022-10-05T16:32:59.992Z,26.27
2022-10-05T16:36:33.604Z,33.42
2022-10-05T16:40:00.642Z,24.80
2022-10-05T16:43:33.325Z,29.05
2022-10-05T16:47:01.067Z,23.02
2022-10-05T16:50:30.323Z,26.20
2022-10-05T16:54:01.323Z,25.88
2022-10-05T16:57:25.105Z,25.55
2022-10-05T17:01:13.986Z,21.65
2022-10-05T17:04:46.180Z,22.25
2022-10-05T17:08:27.960Z,24.55
2022-10-05T17:12:22.586Z,24.42
2022-10-05T17:16:01.365Z,25.05
2022-10-05T17:23:18.418Z,18.58
2022-10-05T17:26:59.391Z,20.85
2022-10-05T17:30:37.683Z,17.80
2022-10-05T17:34:14.373Z,18.27
2022-10-05T17:37:39.903Z,18.27
2022-10-05T17:41:28.586Z,21.80
2022-10-05T17:44:50.687Z,20.35
2022-10-05T17:48:13.851Z,20.30
2022-10-05T17:52:20.473Z,17.77
2022-10-05T17:55:47.249Z,16.77
2022-10-05T17:59:12.318Z,19.33
2022-10-05T18:02:44.050Z,20.42
2022-10-05T18:06:42.529Z,20.90
2022-10-05T18:10:29.031Z,16.63
2022-10-05T18:13:50.973Z,20.40
2022-10-05T18:17:17.312Z,21.00
2022-10-05T18:20:44.872Z,19.25
2022-10-05T18:24:34.659Z,16.52
2022-10-05T18:28:11.792Z,21.65
2022-10-05T18:31:40.340Z,17.42
2022-10-05T18:35:11.586Z,18.02
2022-10-05T18:38:48.526Z,24.80
2022-10-05T18:42:23.114Z,21.50
2022-10-05T18:46:00.756Z,22.15
2022-10-05T18:49:37.833Z,21.98
2022-10-05T18:53:13.336Z,17.92
2022-10-05T18:56:42.323Z,20.30
2022-10-05T19:03:41.579Z,18.13
2022-10-05T19:07:17.422Z,19.50
2022-10-05T19:10:46.182Z,31.20
2022-10-05T19:14:19.668Z,20.77
2022-10-05T19:18:22.908Z,20.40
2022-10-05T19:21:52.863Z,24.23
2022-10-05T19:25:27.759Z,31.90
2022-10-05T19:29:02.972Z,27.63
2022-10-05T19:32:33.081Z,30.50
2022-10-05T19:36:12.002Z,24.50
2022-10-05T19:39:42.991Z,22.27
2022-10-05T19:43:22.392Z,21.33
2022-10-05T19:47:02.598Z,23.05
2022-10-05T19:50:30.461Z,22.17
2022-10-05T19:53:56.087Z,21.83
2022-10-05T19:57:18.819Z,23.70
2022-10-05T20:00:42.505Z,23.42
2022-10-05T20:04:07.023Z,21.50
2022-10-05T20:07:29.310Z,21.50
2022-10-05T20:11:06.893Z,24.38
2022-10-05T20:14:32.231Z,18.95
2022-10-05T20:18:11.591Z,22.85
2022-10-05T20:21:41.574Z,26.52
2022-10-05T20:25:06.329Z,19.40
2022-10-05T20:28:32.284Z,22.60
2022-10-05T20:31:54.358Z,23.35
2022-10-05T20:35:17.022Z,20.90
2022-10-05T20:38:41.377Z,26.17
2022-10-05T20:42:03.941Z,19.08
2022-10-05T20:45:26.001Z,18.35
2022-10-05T20:48:48.017Z,20.70
2022-10-05T20:52:11.486Z,21.48
2022-10-05T20:55:35.275Z,21.23
2022-10-05T20:58:57.238Z,19.27
2022-10-05T21:02:20.220Z,17.88
2022-10-05T21:05:42.077Z,18.25
2022-10-05T21:09:03.851Z,18.90
2022-10-05T21:12:27.111Z,18.50
2022-10-05T21:15:48.760Z,19.00
2022-10-05T21:19:12.418Z,20.35
2022-10-05T21:22:36.434Z,20.15
2022-10-05T21:25:58.516Z,20.50
2022-10-05T21:29:22.290Z,18.05
2022-10-05T21:32:44.949Z,22.58
2022-10-05T21:36:06.986Z,19.92
2022-10-05T21:39:28.920Z,18.98
2022-10-05T21:42:50.994Z,18.65
2022-10-05T21:46:18.458Z,19.83
2022-10-05T21:49:40.161Z,15.63
2022-10-05T21:53:03.957Z,15.70
2022-10-05T21:56:30.772Z,14.75
2022-10-05T21:59:52.228Z,15.13
2022-10-05T22:03:15.416Z,14.27
2022-10-05T22:06:37.555Z,14.10
2022-10-05T22:09:59.398Z,14.13
2022-10-05T22:13:23.045Z,13.98
2022-10-05T22:16:45.548Z,13.95
2022-10-05T22:20:13.222Z,13.13
2022-10-05T22:23:36.112Z,11.52
2022-10-05T22:26:58.216Z,13.00
2022-10-05T22:30:21.567Z,13.00
2022-10-05T22:33:43.196Z,11.23
2022-10-05T22:37:08.184Z,16.20
2022-10-05T22:40:30.485Z,12.60
2022-10-05T22:43:52.869Z,13.05
2022-10-05T22:47:14.311Z,13.73
2022-10-05T22:50:36.324Z,11.52
2022-10-05T22:53:59.563Z,11.60
2022-10-05T22:57:21.808Z,11.88
2022-10-05T23:00:59.133Z,13.63
2022-10-05T23:04:21.267Z,11.13
2022-10-05T23:07:44.824Z,11.73
2022-10-05T23:11:09.354Z,11.60
2022-10-05T23:14:33.344Z,11.82
2022-10-05T23:17:56.284Z,10.77
2022-10-05T23:21:19.044Z,14.25
2022-10-05T23:24:40.948Z,13.20
2022-10-05T23:28:04.640Z,11.65
2022-10-05T23:31:28.938Z,11.95
2022-10-05T23:34:50.837Z,10.57
2022-10-05T23:38:12.913Z,13.70
2022-10-05T23:41:34.918Z,11.45
2022-10-05T23:44:58.129Z,8.98
2022-10-05T23:48:20.065Z,12.52
2022-10-05T23:51:41.677Z,13.68
2022-10-05T23:55:03.668Z,11.60
2022-10-05T23:58:25.758Z,10.18
